createdAt,value
2018-08-27T00:01:04.000Z,14.20
2018-08-27T00:03:32.468Z,14.20
2018-08-27T00:06:00.973Z,14.20
2018-08-27T00:08:29.461Z,14.20
2018-08-27T00:10:57.981Z,14.10
2018-08-27T00:13:26.469Z,14.10
2018-08-27T00:15:54.976Z,14.10
2018-08-27T00:18:23.452Z,14.00
2018-08-27T00:20:51.951Z,14.00
2018-08-27T00:23:20.444Z,13.90
2018-08-27T00:25:48.948Z,13.90
2018-08-27T00:28:17.432Z,13.90
2018-08-27T00:30:45.908Z,13.90
2018-08-27T00:33:14.372Z,13.80
2018-08-27T00:35:42.869Z,13.70
2018-08-27T00:38:11.360Z,13.70
2018-08-27T00:40:39.855Z,13.60
2018-08-27T00:43:08.521Z,13.60
2018-08-27T00:45:37.236Z,13.50
2018-08-27T00:48:05.704Z,13.40
2018-08-27T00:50:34.251Z,13.40
2018-08-27T00:53:02.756Z,13.40
2018-08-27T00:55:31.249Z,13.30
2018-08-27T00:57:59.750Z,13.20
2018-08-27T01:00:28.224Z,13.20
2018-08-27T01:02:56.796Z,13.20
2018-08-27T01:05:25.280Z,13.10
2018-08-27T01:07:53.788Z,13.10
2018-08-27T01:10:22.260Z,13.00
2018-08-27T01:12:50.777Z,12.90
2018-08-27T01:15:19.268Z,13.00
2018-08-27T01:17:47.768Z,13.00
2018-08-27T01:20:16.235Z,13.00
2018-08-27T01:22:44.728Z,13.00
2018-08-27T01:25:13.192Z,13.00
2018-08-27T01:27:41.692Z,13.00
2018-08-27T01:30:10.217Z,13.00
2018-08-27T01:32:38.710Z,12.90
2018-08-27T01:35:07.197Z,12.90
2018-08-27T01:37:35.694Z,12.90
2018-08-27T01:40:04.212Z,12.80
2018-08-27T01:42:32.680Z,12.80
2018-08-27T01:45:01.163Z,12.80
2018-08-27T01:47:29.652Z,12.80
2018-08-27T01:49:58.146Z,12.80
2018-08-27T01:52:26.608Z,12.80
2018-08-27T01:54:55.096Z,12.70
2018-08-27T01:57:23.584Z,12.70
2018-08-27T01:59:52.094Z,12.70
2018-08-27T02:02:20.657Z,12.70
2018-08-27T02:04:49.157Z,12.70
2018-08-27T02:07:17.626Z,12.70
2018-08-27T02:09:46.119Z,12.70
2018-08-27T02:12:14.559Z,12.70
2018-08-27T02:14:44.756Z,12.70
2018-08-27T02:17:13.207Z,12.70
2018-08-27T02:19:41.652Z,12.70
2018-08-27T02:22:10.711Z,12.70
2018-08-27T02:24:39.164Z,12.70
2018-08-27T02:27:07.640Z,12.70
2018-08-27T02:29:36.068Z,12.80
2018-08-27T02:32:04.559Z,12.70
2018-08-27T02:34:33.004Z,12.70
2018-08-27T02:37:01.470Z,12.70
2018-08-27T02:39:29.908Z,12.60
2018-08-27T02:41:58.356Z,12.60
2018-08-27T02:44:26.783Z,12.60
2018-08-27T02:46:55.243Z,12.60
2018-08-27T02:49:23.667Z,12.60
2018-08-27T02:51:52.123Z,12.60
2018-08-27T02:54:20.568Z,12.60
2018-08-27T02:56:49.036Z,12.60
2018-08-27T02:59:17.460Z,12.50
2018-08-27T03:01:45.924Z,12.50
2018-08-27T03:04:14.355Z,12.50
2018-08-27T03:06:42.807Z,12.40
2018-08-27T03:09:11.243Z,12.40
2018-08-27T03:11:39.679Z,12.40
2018-08-27T03:14:08.156Z,12.40
2018-08-27T03:16:36.591Z,12.40
2018-08-27T03:19:05.144Z,12.50
2018-08-27T03:21:33.577Z,12.50
2018-08-27T03:24:02.055Z,12.50
2018-08-27T03:26:30.479Z,12.50
2018-08-27T03:28:58.928Z,12.60
2018-08-27T03:31:27.355Z,12.60
2018-08-27T03:33:55.811Z,12.60
2018-08-27T03:36:24.251Z,12.60
2018-08-27T03:38:52.716Z,12.70
2018-08-27T03:41:21.139Z,12.70
2018-08-27T03:43:49.581Z,12.70
2018-08-27T03:46:18.040Z,12.70
2018-08-27T03:48:46.476Z,12.80
2018-08-27T03:51:14.926Z,12.80
2018-08-27T03:53:43.377Z,12.80
2018-08-27T03:56:11.848Z,12.80
2018-08-27T03:58:40.282Z,12.90
2018-08-27T04:01:08.733Z,12.90
2018-08-27T04:03:37.192Z,12.90
2018-08-27T04:06:05.668Z,13.00
2018-08-27T04:08:34.139Z,13.00
2018-08-27T04:11:02.604Z,13.10
2018-08-27T04:13:31.031Z,13.00
2018-08-27T04:15:59.484Z,13.10
2018-08-27T04:18:27.932Z,13.10
2018-08-27T04:20:56.421Z,13.10
2018-08-27T04:23:24.851Z,13.10
2018-08-27T04:25:53.302Z,13.10
2018-08-27T04:28:21.751Z,13.20
2018-08-27T04:30:50.207Z,13.30
2018-08-27T04:33:18.687Z,13.30
2018-08-27T04:35:47.123Z,13.40
2018-08-27T04:38:15.644Z,13.40
2018-08-27T04:40:44.095Z,13.50
2018-08-27T04:43:12.567Z,13.50
2018-08-27T04:45:41.033Z,13.60
2018-08-27T04:48:09.501Z,13.60
2018-08-27T04:50:37.976Z,13.70
2018-08-27T04:53:06.488Z,13.70
2018-08-27T04:55:34.928Z,13.80
2018-08-27T04:58:03.383Z,13.80
2018-08-27T05:00:34.432Z,13.90
2018-08-27T05:03:02.923Z,13.90
2018-08-27T05:05:31.364Z,14.00
2018-08-27T05:07:59.813Z,14.00
2018-08-27T05:10:28.244Z,14.10
2018-08-27T05:12:56.671Z,14.10
2018-08-27T05:15:25.119Z,14.20
2018-08-27T05:17:53.548Z,14.20
2018-08-27T05:20:22.008Z,14.20
2018-08-27T05:22:50.436Z,14.30
2018-08-27T05:25:18.883Z,14.30
2018-08-27T05:27:47.311Z,14.40
2018-08-27T05:30:15.763Z,14.40
2018-08-27T05:32:44.183Z,14.50
2018-08-27T05:35:12.670Z,14.50
2018-08-27T05:37:41.108Z,14.50
2018-08-27T05:40:09.581Z,14.60
2018-08-27T05:42:38.035Z,14.60
2018-08-27T05:45:06.664Z,14.60
2018-08-27T05:47:35.153Z,14.70
2018-08-27T05:50:03.740Z,14.70
2018-08-27T05:52:32.184Z,14.80
2018-08-27T05:55:00.655Z,14.90
2018-08-27T05:57:29.261Z,14.90
2018-08-27T05:59:57.728Z,15.00
2018-08-27T06:02:26.157Z,15.00
2018-08-27T06:04:54.612Z,15.00
2018-08-27T06:07:23.044Z,15.00
2018-08-27T06:09:51.496Z,15.10
2018-08-27T06:12:19.943Z,15.10
2018-08-27T06:14:48.392Z,15.10
2018-08-27T06:17:16.881Z,15.20
2018-08-27T06:19:45.288Z,15.20
2018-08-27T06:22:13.862Z,15.30
2018-08-27T06:24:42.184Z,15.30
2018-08-27T06:27:10.616Z,15.40
2018-08-27T06:29:39.052Z,15.40
2018-08-27T06:32:07.536Z,15.50
2018-08-27T06:34:35.972Z,15.50
2018-08-27T06:37:04.520Z,15.60
2018-08-27T06:39:32.948Z,15.70
2018-08-27T06:42:01.407Z,15.70
2018-08-27T06:44:29.880Z,15.80
2018-08-27T06:46:58.329Z,15.90
2018-08-27T06:49:26.865Z,15.90
2018-08-27T06:51:55.320Z,16.00
2018-08-27T06:54:23.792Z,16.10
2018-08-27T06:56:52.263Z,16.20
2018-08-27T06:59:20.695Z,16.20
2018-08-27T07:01:49.136Z,16.30
2018-08-27T07:04:17.636Z,16.40
2018-08-27T07:06:46.077Z,16.50
2018-08-27T07:09:15.134Z,16.60
2018-08-27T07:11:43.802Z,16.60
2018-08-27T07:14:12.349Z,16.70
2018-08-27T07:16:40.773Z,16.80
2018-08-27T07:19:09.601Z,16.80
2018-08-27T07:21:38.152Z,16.90
2018-08-27T07:24:06.684Z,17.00
2018-08-27T07:26:35.223Z,17.10
2018-08-27T07:29:03.955Z,17.10
2018-08-27T07:31:32.387Z,17.20
2018-08-27T07:34:00.851Z,17.30
2018-08-27T07:36:29.311Z,17.40
2018-08-27T07:38:57.783Z,17.50
2018-08-27T07:41:26.216Z,17.50
2018-08-27T07:43:54.672Z,17.60
2018-08-27T07:46:23.261Z,17.70
2018-08-27T07:48:51.716Z,17.80
2018-08-27T07:51:20.239Z,17.80
2018-08-27T07:53:48.715Z,17.90
2018-08-27T07:56:17.286Z,18.00
2018-08-27T07:58:45.732Z,18.00
2018-08-27T08:01:14.295Z,18.10
2018-08-27T08:03:42.723Z,18.20
2018-08-27T08:06:11.199Z,18.30
2018-08-27T08:08:39.627Z,18.30
2018-08-27T08:11:08.237Z,18.40
2018-08-27T08:13:36.670Z,18.50
2018-08-27T08:16:05.284Z,18.50
2018-08-27T08:18:33.931Z,18.60
2018-08-27T08:21:02.408Z,18.70
2018-08-27T08:23:30.857Z,18.80
2018-08-27T08:25:59.300Z,18.80
2018-08-27T08:28:27.767Z,18.80
2018-08-27T08:30:56.192Z,18.80
2018-08-27T08:33:24.695Z,18.80
2018-08-27T08:35:53.088Z,18.90
2018-08-27T08:38:21.608Z,18.90
2018-08-27T08:40:50.064Z,18.90
2018-08-27T08:43:18.523Z,19.00
2018-08-27T08:45:47.300Z,18.90
2018-08-27T08:48:15.853Z,18.90
2018-08-27T08:50:44.312Z,18.90
2018-08-27T08:53:12.784Z,18.90
2018-08-27T08:55:41.240Z,18.80
2018-08-27T08:58:09.732Z,18.80
2018-08-27T09:00:38.216Z,18.80
2018-08-27T09:03:06.661Z,18.80
2018-08-27T09:05:35.112Z,18.90
2018-08-27T09:08:03.560Z,18.90
2018-08-27T09:10:32.023Z,18.80
2018-08-27T09:13:00.524Z,18.80
2018-08-27T09:15:28.984Z,18.70
2018-08-27T09:17:57.420Z,18.60
2018-08-27T09:20:25.880Z,18.60
2018-08-27T09:22:54.304Z,18.50
2018-08-27T09:25:22.758Z,18.50
2018-08-27T09:27:51.188Z,18.40
2018-08-27T09:30:19.647Z,18.20
2018-08-27T09:32:48.073Z,17.90
2018-08-27T09:35:16.531Z,17.70
2018-08-27T09:37:44.952Z,17.30
2018-08-27T09:40:13.408Z,17.10
2018-08-27T09:42:41.852Z,17.00
2018-08-27T09:45:10.312Z,16.90
2018-08-27T09:47:38.739Z,16.80
2018-08-27T09:50:07.544Z,16.80
2018-08-27T09:52:36.003Z,16.70
2018-08-27T09:55:04.518Z,16.80
2018-08-27T09:57:32.967Z,16.80
2018-08-27T10:00:01.404Z,16.90
2018-08-27T10:02:29.851Z,17.00
2018-08-27T10:04:58.279Z,16.90
2018-08-27T10:07:26.799Z,16.90
2018-08-27T10:09:55.232Z,16.90
2018-08-27T10:12:23.691Z,17.00
2018-08-27T10:14:52.185Z,17.10
2018-08-27T10:17:20.609Z,17.10
2018-08-27T10:19:49.035Z,17.10
2018-08-27T10:22:17.480Z,17.10
2018-08-27T10:24:45.932Z,17.00
2018-08-27T10:27:14.360Z,17.00
2018-08-27T10:29:42.856Z,17.00
2018-08-27T10:32:11.280Z,17.10
2018-08-27T10:34:39.733Z,17.30
2018-08-27T10:37:08.205Z,17.40
2018-08-27T10:39:36.632Z,17.50
2018-08-27T10:42:05.125Z,17.70
2018-08-27T10:44:33.580Z,17.80
2018-08-27T10:47:02.011Z,17.80
2018-08-27T10:49:30.441Z,17.90
2018-08-27T10:51:58.907Z,18.00
2018-08-27T10:54:27.340Z,17.90
2018-08-27T10:56:55.804Z,18.10
2018-08-27T10:59:24.240Z,18.20
2018-08-27T11:01:52.695Z,18.30
2018-08-27T11:04:21.128Z,18.40
2018-08-27T11:06:49.591Z,18.40
2018-08-27T11:09:18.067Z,18.50
2018-08-27T11:11:46.493Z,18.70
2018-08-27T11:14:14.930Z,18.80
2018-08-27T11:16:43.424Z,18.90
2018-08-27T11:19:11.879Z,19.10
2018-08-27T11:21:40.311Z,19.50
2018-08-27T11:24:14.276Z,19.60
2018-08-27T11:26:46.830Z,19.70
2018-08-27T11:29:16.900Z,19.70
2018-08-27T11:31:45.564Z,19.60
2018-08-27T11:34:14.026Z,19.60
2018-08-27T11:36:42.478Z,19.60
2018-08-27T11:39:12.572Z,19.80
2018-08-27T11:41:41.048Z,19.80
2018-08-27T11:44:09.565Z,20.10
2018-08-27T11:46:38.008Z,20.30
2018-08-27T11:49:06.716Z,20.50
2018-08-27T11:51:35.148Z,20.60
2018-08-27T11:54:03.648Z,20.70
2018-08-27T11:56:32.131Z,20.90
2018-08-27T11:59:00.656Z,21.00
2018-08-27T12:01:29.663Z,21.00
2018-08-27T12:03:58.119Z,21.00
2018-08-27T12:06:26.564Z,21.00
2018-08-27T12:08:55.066Z,21.10
2018-08-27T12:11:23.501Z,21.00
2018-08-27T12:13:51.939Z,21.00
2018-08-27T12:16:21.284Z,21.00
2018-08-27T12:18:49.728Z,21.00
2018-08-27T12:21:18.267Z,21.10
2018-08-27T12:23:46.724Z,21.20
2018-08-27T12:26:15.184Z,21.30
2018-08-27T12:28:43.615Z,21.20
2018-08-27T12:31:12.060Z,21.40
2018-08-27T12:33:40.489Z,21.50
2018-08-27T12:36:08.964Z,21.50
2018-08-27T12:38:37.427Z,21.40
2018-08-27T12:41:06.039Z,21.40
2018-08-27T12:43:34.426Z,21.50
2018-08-27T12:46:02.844Z,21.50
2018-08-27T12:48:31.284Z,21.70
2018-08-27T12:50:59.800Z,21.70
2018-08-27T12:53:28.203Z,21.60
2018-08-27T12:55:56.630Z,21.40
2018-08-27T12:58:25.222Z,21.40
2018-08-27T13:00:53.664Z,21.30
2018-08-27T13:03:22.124Z,21.20
2018-08-27T13:05:50.634Z,21.20
2018-08-27T13:08:19.052Z,21.10
2018-08-27T13:10:47.479Z,21.20
2018-08-27T13:13:15.932Z,21.30
2018-08-27T13:15:44.375Z,21.50
2018-08-27T13:18:12.836Z,21.70
2018-08-27T13:20:41.284Z,21.60
2018-08-27T13:23:09.719Z,21.70
2018-08-27T13:25:38.258Z,21.90
2018-08-27T13:28:06.694Z,21.80
2018-08-27T13:30:35.208Z,21.90
2018-08-27T13:33:03.612Z,22.10
2018-08-27T13:35:32.146Z,22.30
2018-08-27T13:38:00.552Z,22.50
2018-08-27T13:40:29.054Z,23.10
2018-08-27T13:42:58.407Z,23.40
2018-08-27T13:45:26.938Z,23.90
2018-08-27T13:47:55.396Z,24.50
2018-08-27T13:50:23.823Z,24.90
2018-08-27T13:52:52.275Z,25.60
2018-08-27T13:55:20.744Z,25.80
2018-08-27T13:57:49.201Z,25.60
2018-08-27T14:00:22.400Z,25.90
2018-08-27T14:02:51.685Z,26.10
2018-08-27T14:05:20.205Z,26.10
2018-08-27T14:07:48.596Z,26.10
2018-08-27T14:10:17.020Z,25.70
2018-08-27T14:12:46.894Z,25.60
2018-08-27T14:15:15.699Z,25.70
2018-08-27T14:17:44.160Z,25.80
2018-08-27T14:20:13.688Z,25.90
2018-08-27T14:22:42.898Z,26.10
2018-08-27T14:25:11.369Z,26.60
2018-08-27T14:27:39.841Z,27.00
2018-08-27T14:30:08.359Z,27.30
2018-08-27T14:32:36.788Z,27.10
2018-08-27T14:35:05.284Z,26.80
2018-08-27T14:37:33.744Z,26.30
2018-08-27T14:40:02.209Z,25.60
2018-08-27T14:42:30.662Z,25.40
2018-08-27T14:44:59.182Z,25.20
2018-08-27T14:47:27.572Z,25.00
2018-08-27T14:49:56.001Z,24.70
2018-08-27T14:52:24.465Z,24.50
2018-08-27T14:54:52.899Z,24.20
2018-08-27T14:57:21.355Z,23.90
2018-08-27T14:59:49.784Z,23.70
2018-08-27T15:02:18.244Z,23.60
2018-08-27T15:04:46.677Z,23.50
2018-08-27T15:07:15.176Z,23.50
2018-08-27T15:09:43.718Z,23.60
2018-08-27T15:12:12.066Z,23.80
2018-08-27T15:14:40.520Z,24.00
2018-08-27T15:17:08.989Z,24.10
2018-08-27T15:19:37.444Z,24.20
2018-08-27T15:22:05.983Z,24.30
2018-08-27T15:24:34.440Z,24.30
2018-08-27T15:27:02.883Z,24.10
2018-08-27T15:29:31.344Z,24.10
2018-08-27T15:31:59.779Z,24.10
2018-08-27T15:34:28.216Z,24.10
2018-08-27T15:36:56.679Z,24.20
2018-08-27T15:39:25.107Z,24.20
2018-08-27T15:41:53.564Z,24.10
2018-08-27T15:44:22.043Z,24.10
2018-08-27T15:46:50.478Z,24.00
2018-08-27T15:49:18.936Z,24.00
2018-08-27T15:51:47.380Z,23.70
2018-08-27T15:54:15.891Z,23.50
2018-08-27T15:56:44.333Z,23.50
2018-08-27T15:59:12.795Z,23.40
2018-08-27T16:01:41.255Z,23.30
2018-08-27T16:04:09.714Z,23.20
2018-08-27T16:06:38.184Z,23.20
2018-08-27T16:09:06.939Z,23.30
2018-08-27T16:11:35.400Z,23.50
2018-08-27T16:14:03.848Z,23.50
2018-08-27T16:16:32.321Z,23.30
2018-08-27T16:19:00.764Z,23.20
2018-08-27T16:21:29.212Z,23.10
2018-08-27T16:23:57.772Z,23.10
2018-08-27T16:26:26.248Z,23.10
2018-08-27T16:28:54.712Z,23.10
2018-08-27T16:31:23.149Z,23.20
2018-08-27T16:33:51.620Z,23.20
2018-08-27T16:36:20.056Z,23.20
2018-08-27T16:38:48.520Z,23.20
2018-08-27T16:41:16.992Z,23.20
2018-08-27T16:43:45.476Z,23.10
2018-08-27T16:46:13.968Z,23.00
2018-08-27T16:48:42.395Z,23.00
2018-08-27T16:51:11.707Z,22.80
2018-08-27T16:53:40.127Z,22.60
2018-08-27T16:56:08.600Z,22.50
2018-08-27T16:58:37.064Z,22.40
2018-08-27T17:01:05.856Z,22.30
2018-08-27T17:03:34.309Z,22.10
2018-08-27T17:06:02.736Z,22.10
2018-08-27T17:08:31.192Z,22.00
2018-08-27T17:10:59.617Z,21.90
2018-08-27T17:13:28.044Z,21.90
2018-08-27T17:15:56.505Z,21.90
2018-08-27T17:18:24.940Z,21.80
2018-08-27T17:20:53.391Z,21.80
2018-08-27T17:23:21.835Z,21.70
2018-08-27T17:25:50.320Z,21.70
2018-08-27T17:28:18.761Z,21.60
2018-08-27T17:30:47.213Z,21.50
2018-08-27T17:33:15.735Z,21.50
2018-08-27T17:35:44.186Z,21.40
2018-08-27T17:38:12.632Z,21.40
2018-08-27T17:40:41.077Z,21.30
2018-08-27T17:43:09.540Z,21.20
2018-08-27T17:45:38.010Z,21.20
2018-08-27T17:48:06.467Z,21.10
2018-08-27T17:50:34.927Z,21.10
2018-08-27T17:53:03.364Z,21.00
2018-08-27T17:55:31.824Z,21.00
2018-08-27T17:58:00.297Z,20.90
2018-08-27T18:00:28.736Z,20.90
2018-08-27T18:02:57.167Z,20.80
2018-08-27T18:05:25.640Z,20.80
2018-08-27T18:07:54.079Z,20.70
2018-08-27T18:10:23.512Z,20.70
2018-08-27T18:12:51.963Z,20.70
2018-08-27T18:15:20.408Z,20.60
2018-08-27T18:17:48.884Z,20.60
2018-08-27T18:20:17.324Z,20.50
2018-08-27T18:22:45.788Z,20.50
2018-08-27T18:25:14.254Z,20.40
2018-08-27T18:27:42.668Z,20.40
2018-08-27T18:30:11.568Z,20.40
2018-08-27T18:32:40.028Z,20.30
2018-08-27T18:35:08.516Z,20.30
2018-08-27T18:37:36.956Z,20.30
2018-08-27T18:40:05.704Z,20.30
2018-08-27T18:42:34.156Z,20.30
2018-08-27T18:45:02.649Z,20.20
2018-08-27T18:47:31.092Z,20.20
2018-08-27T18:49:59.556Z,20.10
2018-08-27T18:52:27.991Z,20.10
2018-08-27T18:54:56.476Z,20.10
2018-08-27T18:57:24.931Z,20.00
2018-08-27T18:59:53.359Z,20.00
2018-08-27T19:02:21.898Z,19.90
2018-08-27T19:04:50.334Z,19.90
2018-08-27T19:07:18.814Z,19.90
2018-08-27T19:09:47.270Z,19.80
2018-08-27T19:12:15.711Z,19.80
2018-08-27T19:14:44.184Z,19.70
2018-08-27T19:17:12.632Z,19.60
2018-08-27T19:19:41.103Z,19.60
2018-08-27T19:22:09.572Z,19.60
2018-08-27T19:24:38.117Z,19.60
2018-08-27T19:27:06.761Z,19.50
2018-08-27T19:29:35.196Z,19.50
2018-08-27T19:32:03.668Z,19.40
2018-08-27T19:34:32.228Z,19.40
2018-08-27T19:37:00.773Z,19.40
2018-08-27T19:39:29.182Z,19.40
2018-08-27T19:41:57.633Z,19.30
2018-08-27T19:44:26.079Z,19.30
2018-08-27T19:46:54.537Z,19.20
2018-08-27T19:49:22.993Z,19.10
2018-08-27T19:51:51.440Z,19.10
2018-08-27T19:54:19.904Z,19.10
2018-08-27T19:56:48.344Z,19.10
2018-08-27T19:59:16.802Z,19.10
2018-08-27T20:01:45.243Z,19.00
2018-08-27T20:04:13.700Z,19.00
2018-08-27T20:06:42.147Z,19.00
2018-08-27T20:09:10.609Z,19.00
2018-08-27T20:11:39.064Z,19.00
2018-08-27T20:14:07.512Z,19.00
2018-08-27T20:16:36.151Z,18.90
2018-08-27T20:19:04.497Z,18.90
2018-08-27T20:21:32.969Z,18.90
2018-08-27T20:24:01.406Z,18.90
2018-08-27T20:26:29.831Z,18.80
2018-08-27T20:28:58.312Z,18.80
2018-08-27T20:31:26.763Z,18.70
2018-08-27T20:33:55.231Z,18.70
2018-08-27T20:36:23.664Z,18.60
2018-08-27T20:38:52.175Z,18.60
2018-08-27T20:41:20.600Z,18.60
2018-08-27T20:43:49.082Z,18.50
2018-08-27T20:46:17.523Z,18.40
2018-08-27T20:48:45.964Z,18.40
2018-08-27T20:51:14.438Z,18.40
2018-08-27T20:53:42.875Z,18.40
2018-08-27T20:56:11.335Z,18.40
2018-08-27T20:58:39.792Z,18.40
2018-08-27T21:01:08.245Z,18.40
2018-08-27T21:03:36.689Z,18.40
2018-08-27T21:06:05.261Z,18.40
2018-08-27T21:08:33.736Z,18.30
2018-08-27T21:11:02.309Z,18.30
2018-08-27T21:13:30.767Z,18.30
2018-08-27T21:15:59.203Z,18.30
2018-08-27T21:18:27.656Z,18.40
2018-08-27T21:20:56.184Z,18.40
2018-08-27T21:23:24.740Z,18.30
2018-08-27T21:25:53.180Z,18.30
2018-08-27T21:28:21.723Z,18.30
2018-08-27T21:30:50.188Z,18.30
2018-08-27T21:33:18.802Z,18.30
2018-08-27T21:35:47.283Z,18.30
2018-08-27T21:38:15.719Z,18.20
2018-08-27T21:40:44.196Z,18.20
2018-08-27T21:43:12.638Z,18.10
2018-08-27T21:45:41.076Z,18.10
2018-08-27T21:48:09.582Z,18.00
2018-08-27T21:50:38.040Z,18.00
2018-08-27T21:53:06.597Z,18.00
2018-08-27T21:55:35.012Z,18.00
2018-08-27T21:58:03.479Z,17.90
2018-08-27T22:00:32.003Z,17.90
2018-08-27T22:03:05.886Z,17.90
2018-08-27T22:05:34.356Z,17.90
2018-08-27T22:08:02.808Z,17.90
2018-08-27T22:10:31.287Z,17.90
2018-08-27T22:12:59.748Z,17.90
2018-08-27T22:15:28.276Z,17.90
2018-08-27T22:17:56.720Z,17.90
2018-08-27T22:20:25.200Z,17.90
2018-08-27T22:22:53.640Z,17.90
2018-08-27T22:25:22.077Z,17.90
2018-08-27T22:27:50.563Z,17.80
2018-08-27T22:30:19.014Z,17.80
2018-08-27T22:32:47.535Z,17.80
2018-08-27T22:35:15.964Z,17.70
2018-08-27T22:37:44.425Z,17.80
2018-08-27T22:40:12.876Z,17.70
2018-08-27T22:42:41.315Z,17.70
2018-08-27T22:45:09.792Z,17.70
2018-08-27T22:47:38.224Z,17.70
2018-08-27T22:50:06.860Z,17.60
2018-08-27T22:52:35.356Z,17.50
2018-08-27T22:55:03.856Z,17.50
2018-08-27T22:57:32.323Z,17.50
2018-08-27T23:00:00.796Z,17.50
2018-08-27T23:02:34.605Z,17.50
2018-08-27T23:05:03.069Z,17.50
2018-08-27T23:07:31.543Z,17.40
2018-08-27T23:09:59.975Z,17.40
2018-08-27T23:12:28.447Z,17.40
2018-08-27T23:14:56.892Z,17.30
2018-08-27T23:17:25.339Z,17.30
2018-08-27T23:19:53.792Z,17.30
2018-08-27T23:22:22.251Z,17.30
2018-08-27T23:24:50.699Z,17.30
2018-08-27T23:27:19.164Z,17.30
2018-08-27T23:29:47.619Z,17.40
2018-08-27T23:32:16.068Z,17.40
2018-08-27T23:34:44.527Z,17.40
2018-08-27T23:37:12.975Z,17.40
2018-08-27T23:39:41.512Z,17.40
2018-08-27T23:42:09.940Z,17.50
2018-08-27T23:44:38.375Z,17.50
2018-08-27T23:47:06.892Z,17.50
2018-08-27T23:49:35.348Z,17.60
2018-08-27T23:52:03.812Z,17.60
2018-08-27T23:54:32.251Z,17.60
2018-08-27T23:57:00.697Z,17.60
2018-08-27T23:59:29.156Z,17.70
